Terminal Aerodrome Forecast
Issued by NWS Rapid City, SD

Home | Current Version | Previous Version | Graphics & Text | Print | Product List | Glossary On
Versions: 1 2 3 4 5 6 7 8 9 10 11 12 13 14 15 16 17 18 19
000
FTUS43 KUNR 162119 AAB
TAFRAP
TAF AMD
KRAP 162119Z 1621/1718 36013KT P6SM SCT015 OVC050
      TEMPO 1621/1701 3SM -SN SCT008 BKN015
     FM170100 35008KT P6SM SCT025 OVC040=

USA.gov is the U.S. government's official web portal to all federal, state and local government web resources and services.